createdAt,value
2023-05-18T00:01:16.442Z,10.6
2023-05-18T00:07:16.437Z,10.5
2023-05-18T00:10:16.552Z,10.5
2023-05-18T00:13:16.450Z,10.5
2023-05-18T00:16:16.505Z,10.4
2023-05-18T00:19:16.485Z,10.4
2023-05-18T00:22:16.478Z,10.4
2023-05-18T00:25:16.466Z,10.4
2023-05-18T00:28:16.457Z,10.4
2023-05-18T00:31:16.460Z,10.3
2023-05-18T00:34:16.472Z,10.3
2023-05-18T00:37:16.462Z,10.3
2023-05-18T00:40:16.500Z,10.3
2023-05-18T00:43:16.480Z,10.2
2023-05-18T00:46:16.479Z,10.2
2023-05-18T00:49:16.446Z,10.2
2023-05-18T00:52:16.459Z,10.2
2023-05-18T00:55:16.556Z,10.2
2023-05-18T00:58:16.460Z,10.1
2023-05-18T01:01:16.555Z,10.1
2023-05-18T01:04:16.479Z,10.1
2023-05-18T01:07:16.518Z,10.1
2023-05-18T01:10:16.476Z,10.1
2023-05-18T01:13:16.472Z,10
2023-05-18T01:16:16.483Z,10
2023-05-18T01:19:16.587Z,10
2023-05-18T01:22:16.461Z,10
2023-05-18T01:25:16.458Z,10
2023-05-18T01:28:16.454Z,9.9
2023-05-18T01:31:16.641Z,9.9
2023-05-18T01:34:16.483Z,9.9
2023-05-18T01:37:16.464Z,9.9
2023-05-18T01:40:16.455Z,9.9
2023-05-18T01:43:16.453Z,9.9
2023-05-18T01:49:16.453Z,9.8
2023-05-18T01:52:16.451Z,9.8
2023-05-18T01:55:16.444Z,9.7
2023-05-18T01:58:16.441Z,9.7
2023-05-18T02:01:16.440Z,9.7
2023-05-18T02:04:16.467Z,9.6
2023-05-18T02:07:16.481Z,9.6
2023-05-18T02:10:16.418Z,9.6
2023-05-18T02:13:16.441Z,9.5
2023-05-18T02:16:16.451Z,9.5
2023-05-18T02:19:16.433Z,9.5
2023-05-18T02:22:16.436Z,9.4
2023-05-18T02:25:16.427Z,9.4
2023-05-18T02:28:16.463Z,9.4
2023-05-18T02:34:16.433Z,9.3
2023-05-18T02:37:16.411Z,9.3
2023-05-18T02:40:16.463Z,9.3
2023-05-18T02:43:16.500Z,9.3
2023-05-18T02:46:16.662Z,9.3
2023-05-18T02:49:16.533Z,9.3
2023-05-18T02:52:16.488Z,9.3
2023-05-18T02:55:16.525Z,9.3
2023-05-18T02:58:16.497Z,9.3
2023-05-18T03:01:16.511Z,9.3
2023-05-18T03:04:16.497Z,9.3
2023-05-18T03:07:16.506Z,9.2
2023-05-18T03:10:16.503Z,9.2
2023-05-18T03:13:16.502Z,9.2
2023-05-18T03:16:16.601Z,9.2
2023-05-18T03:19:16.547Z,9.2
2023-05-18T03:22:16.512Z,9.2
2023-05-18T03:25:16.521Z,9.2
2023-05-18T03:28:16.534Z,9.2
2023-05-18T03:31:16.569Z,9.2
2023-05-18T03:34:16.533Z,9.2
2023-05-18T03:37:16.530Z,9.2
2023-05-18T03:40:16.537Z,9.2
2023-05-18T03:43:16.561Z,9.1
2023-05-18T03:46:16.570Z,9.1
2023-05-18T03:49:16.536Z,9.1
2023-05-18T03:52:16.523Z,9.1
2023-05-18T03:55:16.528Z,9.1
2023-05-18T03:58:16.560Z,9.1
2023-05-18T04:01:16.526Z,9.1
2023-05-18T04:04:16.626Z,9.1
2023-05-18T04:07:16.538Z,9.1
2023-05-18T04:10:16.555Z,9.1
2023-05-18T04:13:16.557Z,9.1
2023-05-18T04:16:16.632Z,9.1
2023-05-18T04:19:16.568Z,9
2023-05-18T04:22:16.544Z,9
2023-05-18T04:25:16.543Z,9
2023-05-18T04:28:16.539Z,9
2023-05-18T04:31:16.566Z,9
2023-05-18T04:34:16.542Z,9
2023-05-18T04:37:16.542Z,9
2023-05-18T04:40:16.537Z,9
2023-05-18T04:43:16.534Z,9.1
2023-05-18T04:46:16.566Z,9.1
2023-05-18T04:49:16.569Z,9.1
2023-05-18T04:52:16.547Z,9.1
2023-05-18T04:55:16.537Z,9.1
2023-05-18T04:58:16.535Z,9.1
2023-05-18T05:01:16.597Z,9.1
2023-05-18T05:04:16.548Z,9.2
2023-05-18T05:07:16.549Z,9.2
2023-05-18T05:10:16.519Z,9.2
2023-05-18T05:13:16.533Z,9.3
2023-05-18T05:16:16.556Z,9.3
2023-05-18T05:19:16.569Z,9.3
2023-05-18T05:22:16.511Z,9.3
2023-05-18T05:25:16.539Z,9.4
2023-05-18T05:31:16.690Z,9.4
2023-05-18T05:34:16.615Z,9.5
2023-05-18T05:37:16.646Z,9.5
2023-05-18T05:40:16.620Z,9.5
2023-05-18T05:43:16.652Z,9.5
2023-05-18T05:46:16.663Z,9.6
2023-05-18T05:49:16.625Z,9.6
2023-05-18T05:52:16.678Z,9.6
2023-05-18T05:55:16.640Z,9.6
2023-05-18T05:58:16.615Z,9.7
2023-05-18T06:04:16.660Z,9.7
2023-05-18T06:07:16.596Z,9.8
2023-05-18T06:10:16.627Z,9.8
2023-05-18T06:13:16.619Z,9.9
2023-05-18T06:16:16.632Z,9.9
2023-05-18T06:19:16.682Z,9.9
2023-05-18T06:22:16.629Z,10
2023-05-18T06:25:16.626Z,10
2023-05-18T06:28:16.627Z,10.1
2023-05-18T06:31:16.636Z,10.1
2023-05-18T06:34:16.616Z,10.1
2023-05-18T06:37:16.627Z,10.1
2023-05-18T06:40:16.653Z,10.2
2023-05-18T06:43:16.647Z,10.3
2023-05-18T06:46:16.663Z,10.3
2023-05-18T06:49:16.624Z,10.3
2023-05-18T06:52:16.638Z,10.4
2023-05-18T06:55:16.685Z,10.4
2023-05-18T06:58:16.719Z,10.5
2023-05-18T07:01:16.690Z,10.5
2023-05-18T07:04:16.707Z,10.5
2023-05-18T07:07:16.667Z,10.6
2023-05-18T07:10:16.719Z,10.6
2023-05-18T07:13:17.982Z,10.6
2023-05-18T07:16:17.427Z,10.7
2023-05-18T07:22:17.437Z,10.8
2023-05-18T07:25:17.433Z,10.8
2023-05-18T07:28:17.424Z,10.9
2023-05-18T07:31:17.497Z,10.9
2023-05-18T07:34:17.429Z,11
2023-05-18T07:37:17.425Z,11
2023-05-18T07:40:17.435Z,11.1
2023-05-18T07:43:17.448Z,11.1
2023-05-18T07:46:17.539Z,11.2
2023-05-18T07:49:17.438Z,11.2
2023-05-18T07:52:17.427Z,11.3
2023-05-18T07:55:17.438Z,11.3
2023-05-18T07:58:17.450Z,11.4
2023-05-18T08:01:17.424Z,11.5
2023-05-18T08:04:17.469Z,11.5
2023-05-18T08:07:17.418Z,11.5
2023-05-18T08:13:17.417Z,11.6
2023-05-18T08:16:17.739Z,11.7
2023-05-18T08:22:17.404Z,11.9
2023-05-18T08:25:17.433Z,11.9
2023-05-18T08:28:17.416Z,11.9
2023-05-18T08:31:17.448Z,12
2023-05-18T08:34:17.418Z,12.1
2023-05-18T08:40:17.413Z,12.2
2023-05-18T08:43:17.442Z,12.3
2023-05-18T08:46:17.632Z,12.4
2023-05-18T08:49:17.408Z,12.5
2023-05-18T08:52:17.421Z,12.6
2023-05-18T08:55:17.413Z,12.6
2023-05-18T09:01:17.429Z,12.8
2023-05-18T09:04:17.416Z,12.9
2023-05-18T09:07:17.445Z,13
2023-05-18T09:10:17.422Z,13.1
2023-05-18T09:13:17.406Z,13.1
2023-05-18T09:16:17.461Z,13.2
2023-05-18T09:19:17.436Z,13.3
2023-05-18T09:22:17.404Z,13.4
2023-05-18T09:25:17.408Z,13.5
2023-05-18T09:28:17.418Z,13.5
2023-05-18T09:31:17.409Z,13.6
2023-05-18T09:34:17.414Z,13.7
2023-05-18T09:37:17.396Z,13.8
2023-05-18T09:40:17.401Z,13.9
2023-05-18T09:43:17.380Z,13.9
2023-05-18T09:46:17.390Z,14
2023-05-18T09:49:17.376Z,14.1
2023-05-18T09:52:17.398Z,14.1
2023-05-18T09:55:17.384Z,14.2
2023-05-18T09:58:17.391Z,14.3
2023-05-18T10:01:17.444Z,14.4
2023-05-18T10:04:17.408Z,14.6
2023-05-18T10:07:17.416Z,14.6
2023-05-18T10:10:17.387Z,14.8
2023-05-18T10:13:17.380Z,14.9
2023-05-18T10:16:17.410Z,14.9
2023-05-18T10:19:17.403Z,14.9
2023-05-18T10:22:17.397Z,14.9
2023-05-18T10:25:17.379Z,15.1
2023-05-18T10:28:17.382Z,15.1
2023-05-18T10:31:17.435Z,15.2
2023-05-18T10:34:17.394Z,15.3
2023-05-18T10:37:17.378Z,15.4
2023-05-18T10:40:17.416Z,15.5
2023-05-18T10:43:19.395Z,15.6
2023-05-18T10:46:17.423Z,15.7
2023-05-18T10:49:17.400Z,15.8
2023-05-18T10:52:17.371Z,15.9
2023-05-18T10:55:17.365Z,16.2
2023-05-18T10:58:17.382Z,16.2
2023-05-18T11:01:17.399Z,16.3
2023-05-18T11:04:17.390Z,16.3
2023-05-18T11:07:17.388Z,16.4
2023-05-18T11:10:17.377Z,16.5
2023-05-18T11:13:17.360Z,16.5
2023-05-18T11:16:17.443Z,16.5
2023-05-18T11:19:17.390Z,16.5
2023-05-18T11:22:17.367Z,16.5
2023-05-18T11:25:17.356Z,16.5
2023-05-18T11:31:17.387Z,16.5
2023-05-18T11:34:17.396Z,16.5
2023-05-18T11:37:17.391Z,16.5
2023-05-18T11:40:17.505Z,16.5
2023-05-18T11:43:17.514Z,16.6
2023-05-18T11:46:17.397Z,16.7
2023-05-18T11:49:17.432Z,16.8
2023-05-18T11:52:17.388Z,16.8
2023-05-18T11:55:17.380Z,16.9
2023-05-18T11:58:17.387Z,17
2023-05-18T12:01:17.380Z,17
2023-05-18T12:04:17.531Z,17
2023-05-18T12:07:17.384Z,17
2023-05-18T12:10:17.466Z,17.1
2023-05-18T12:13:17.369Z,17.1
2023-05-18T12:16:17.368Z,17.2
2023-05-18T12:19:17.432Z,17.2
2023-05-18T12:22:17.369Z,17.2
2023-05-18T12:25:17.381Z,17.2
2023-05-18T12:28:17.369Z,17.3
2023-05-18T12:31:17.403Z,17.3
2023-05-18T12:34:17.403Z,17.4
2023-05-18T12:37:17.400Z,17.4
2023-05-18T12:40:17.416Z,17.4
2023-05-18T12:43:17.376Z,17.4
2023-05-18T12:46:17.398Z,17.3
2023-05-18T12:49:17.396Z,17.4
2023-05-18T12:52:17.376Z,17.5
2023-05-18T12:55:17.385Z,17.5
2023-05-18T12:58:17.393Z,17.4
2023-05-18T13:01:17.437Z,17.4
2023-05-18T13:04:17.421Z,17.4
2023-05-18T13:07:17.382Z,17.4
2023-05-18T13:10:17.372Z,17.4
2023-05-18T13:13:17.394Z,17.5
2023-05-18T13:16:17.488Z,17.5
2023-05-18T13:19:17.450Z,17.6
2023-05-18T13:22:17.375Z,17.7
2023-05-18T13:25:17.403Z,17.8
2023-05-18T13:28:17.382Z,17.8
2023-05-18T13:31:17.406Z,17.9
2023-05-18T13:34:17.377Z,17.8
2023-05-18T13:37:17.367Z,17.8
2023-05-18T13:40:17.382Z,17.7
2023-05-18T13:43:17.373Z,17.7
2023-05-18T13:46:17.459Z,17.8
2023-05-18T13:49:17.366Z,17.8
2023-05-18T13:52:17.384Z,17.9
2023-05-18T13:55:17.375Z,17.9
2023-05-18T13:58:17.402Z,17.9
2023-05-18T14:01:17.457Z,17.9
2023-05-18T14:07:17.369Z,17.9
2023-05-18T14:13:17.363Z,17.9
2023-05-18T14:16:17.556Z,17.9
2023-05-18T14:19:17.413Z,17.9
2023-05-18T14:22:17.380Z,18
2023-05-18T14:25:17.362Z,18
2023-05-18T14:28:17.394Z,18
2023-05-18T14:31:17.625Z,18
2023-05-18T14:34:17.355Z,18
2023-05-18T14:37:17.345Z,18
2023-05-18T14:40:17.460Z,18
2023-05-18T14:43:17.478Z,18.1
2023-05-18T14:46:17.415Z,18.1
2023-05-18T14:49:17.355Z,18
2023-05-18T14:52:17.385Z,18
2023-05-18T14:55:17.427Z,17.9
2023-05-18T14:58:17.373Z,18
2023-05-18T15:01:17.517Z,18
2023-05-18T15:04:17.372Z,18
2023-05-18T15:07:17.346Z,18
2023-05-18T15:10:17.348Z,18
2023-05-18T15:13:17.404Z,18
2023-05-18T15:16:17.412Z,18
2023-05-18T15:19:17.390Z,18.1
2023-05-18T15:22:17.351Z,18.1
2023-05-18T15:25:17.341Z,18
2023-05-18T15:28:17.410Z,18
2023-05-18T15:31:17.605Z,18
2023-05-18T15:34:17.722Z,18
2023-05-18T15:37:17.723Z,18
2023-05-18T15:40:17.722Z,17.9
2023-05-18T15:43:17.724Z,17.9
2023-05-18T15:46:17.799Z,17.9
2023-05-18T15:49:17.709Z,17.9
2023-05-18T15:52:17.721Z,17.8
2023-05-18T15:55:17.724Z,17.8
2023-05-18T15:58:17.756Z,17.7
2023-05-18T16:01:18.017Z,17.7
2023-05-18T16:04:17.708Z,17.6
2023-05-18T16:07:17.729Z,17.7
2023-05-18T16:10:17.754Z,17.7
2023-05-18T16:13:17.748Z,17.6
2023-05-18T16:16:17.724Z,17.6
2023-05-18T16:19:17.812Z,17.5
2023-05-18T16:22:17.731Z,17.5
2023-05-18T16:25:17.742Z,17.4
2023-05-18T16:28:17.713Z,17.4
2023-05-18T16:31:17.897Z,17.3
2023-05-18T16:34:17.762Z,17.2
2023-05-18T16:37:17.713Z,17.2
2023-05-18T16:40:17.715Z,17.2
2023-05-18T16:43:17.708Z,17.2
2023-05-18T16:46:17.771Z,17.1
2023-05-18T16:49:17.696Z,17.1
2023-05-18T16:52:17.714Z,17
2023-05-18T16:55:17.694Z,17
2023-05-18T16:58:17.695Z,16.9
2023-05-18T17:01:27.113Z,16.9
2023-05-18T17:04:17.792Z,16.9
2023-05-18T17:07:17.700Z,16.8
2023-05-18T17:10:17.682Z,16.8
2023-05-18T17:13:17.698Z,16.8
2023-05-18T17:16:17.761Z,16.7
2023-05-18T17:19:17.765Z,16.7
2023-05-18T17:22:17.691Z,16.6
2023-05-18T17:25:17.709Z,16.6
2023-05-18T17:28:17.688Z,16.6
2023-05-18T17:31:17.687Z,16.6
2023-05-18T17:34:17.683Z,16.5
2023-05-18T17:40:17.688Z,16.4
2023-05-18T17:43:17.700Z,16.4
2023-05-18T17:46:17.775Z,16.3
2023-05-18T17:49:17.685Z,16.3
2023-05-18T17:52:17.680Z,16.2
2023-05-18T17:55:17.669Z,16.2
2023-05-18T17:58:17.698Z,16.2
2023-05-18T18:01:17.695Z,16.1
2023-05-18T18:04:17.718Z,16.1
2023-05-18T18:10:17.677Z,16
2023-05-18T18:13:17.703Z,16
2023-05-18T18:16:17.777Z,15.9
2023-05-18T18:22:17.707Z,15.9
2023-05-18T18:25:17.688Z,15.8
2023-05-18T18:28:17.687Z,15.8
2023-05-18T18:31:17.716Z,15.7
2023-05-18T18:34:17.681Z,15.7
2023-05-18T18:37:17.677Z,15.6
2023-05-18T18:40:17.685Z,15.6
2023-05-18T18:43:17.689Z,15.5
2023-05-18T18:46:17.682Z,15.5
2023-05-18T18:49:17.676Z,15.5
2023-05-18T18:52:17.674Z,15.4
2023-05-18T18:55:17.683Z,15.4
2023-05-18T18:58:17.668Z,15.3
2023-05-18T19:01:17.671Z,15.3
2023-05-18T19:04:19.595Z,15.2
2023-05-18T19:07:17.668Z,15.2
2023-05-18T19:10:17.655Z,15.1
2023-05-18T19:13:17.659Z,15.1
2023-05-18T19:16:17.757Z,15
2023-05-18T19:19:17.688Z,15
2023-05-18T19:22:17.666Z,14.9
2023-05-18T19:25:17.665Z,14.9
2023-05-18T19:28:17.673Z,14.8
2023-05-18T19:31:17.710Z,14.7
2023-05-18T19:34:17.639Z,14.7
2023-05-18T19:37:17.665Z,14.6
2023-05-18T19:40:17.659Z,14.6
2023-05-18T19:43:17.656Z,14.5
2023-05-18T19:46:17.657Z,14.5
2023-05-18T19:49:17.655Z,14.4
2023-05-18T19:52:17.657Z,14.4
2023-05-18T19:55:17.691Z,14.4
2023-05-18T19:58:17.634Z,14.3
2023-05-18T20:01:17.663Z,14.3
2023-05-18T20:04:17.690Z,14.2
2023-05-18T20:07:17.647Z,14.2
2023-05-18T20:10:17.643Z,14.1
2023-05-18T20:13:17.667Z,14.1
2023-05-18T20:16:17.677Z,14
2023-05-18T20:19:17.802Z,14
2023-05-18T20:22:17.627Z,14
2023-05-18T20:25:17.654Z,13.9
2023-05-18T20:28:17.652Z,13.9
2023-05-18T20:31:17.686Z,13.9
2023-05-18T20:34:17.636Z,13.9
2023-05-18T20:37:17.649Z,13.8
2023-05-18T20:40:17.626Z,13.8
2023-05-18T20:43:17.669Z,13.7
2023-05-18T20:46:17.663Z,13.7
2023-05-18T20:49:17.641Z,13.7
2023-05-18T20:52:17.634Z,13.6
2023-05-18T20:55:17.651Z,13.5
2023-05-18T21:01:17.642Z,13.5
2023-05-18T21:04:19.359Z,13.4
2023-05-18T21:07:17.654Z,13.3
2023-05-18T21:13:17.618Z,13.3
2023-05-18T21:16:17.655Z,13.3
2023-05-18T21:19:17.690Z,13.2
2023-05-18T21:22:17.649Z,13.1
2023-05-18T21:25:17.632Z,13.1
2023-05-18T21:28:17.639Z,13.1
2023-05-18T21:31:17.700Z,13
2023-05-18T21:34:17.624Z,13
2023-05-18T21:37:17.616Z,13
2023-05-18T21:40:17.637Z,12.9
2023-05-18T21:43:17.615Z,12.9
2023-05-18T21:46:17.697Z,12.8
2023-05-18T21:49:17.620Z,12.8
2023-05-18T21:52:17.636Z,12.8
2023-05-18T21:58:17.626Z,12.8
2023-05-18T22:01:17.647Z,12.8
2023-05-18T22:04:17.685Z,12.8
2023-05-18T22:07:17.694Z,12.7
2023-05-18T22:10:17.631Z,12.7
2023-05-18T22:13:17.618Z,12.7
2023-05-18T22:16:17.801Z,12.7
2023-05-18T22:19:17.688Z,12.6
2023-05-18T22:22:29.027Z,12.6
2023-05-18T22:25:17.620Z,12.5
2023-05-18T22:28:17.637Z,12.5
2023-05-18T22:31:17.609Z,12.5
2023-05-18T22:34:17.615Z,12.4
2023-05-18T22:40:17.637Z,12.4
2023-05-18T22:43:17.610Z,12.3
2023-05-18T22:46:17.976Z,12.3
2023-05-18T22:49:17.625Z,12.2
2023-05-18T22:52:17.613Z,12.2
2023-05-18T22:58:17.640Z,12.1
2023-05-18T23:01:17.623Z,12.1
2023-05-18T23:04:17.599Z,12.1
2023-05-18T23:07:17.607Z,12.1
2023-05-18T23:10:17.610Z,12
2023-05-18T23:13:17.597Z,12
2023-05-18T23:16:17.628Z,12
2023-05-18T23:19:17.634Z,12
2023-05-18T23:22:17.609Z,12
2023-05-18T23:25:17.615Z,12
2023-05-18T23:28:17.594Z,11.9
2023-05-18T23:31:17.709Z,11.9
2023-05-18T23:34:17.589Z,11.9
2023-05-18T23:37:17.594Z,11.9
2023-05-18T23:40:17.608Z,11.8
2023-05-18T23:43:17.587Z,11.8
2023-05-18T23:46:17.628Z,11.8
2023-05-18T23:49:17.584Z,11.7
2023-05-18T23:52:17.593Z,11.7
2023-05-18T23:55:17.580Z,11.7
2023-05-18T23:58:17.581Z,11.7
